This is the latest recevied weather packets stored in our database for station/object OE9XVI-6. If no packets are shown the sender has not sent any weather packets the latest 10 day(s).
| Time | Temp. | Humidity | Pressure | Rain* | Wind** | Luminosity | Snow |
|---|---|---|---|---|---|---|---|
| 1777801020 | 17.22° C | 39% | 1018.3 hPa | 0 mm | - | - | - |
| 1777800419 | 17.78° C | 34% | 1018.2 hPa | 0 mm | - | - | - |
| 1777799819 | 18.33° C | 29% | 1018.4 hPa | 0 mm | - | - | - |
| 1777798620 | 18.89° C | 33% | 1018.3 hPa | 0 mm | - | - | - |
| 1777798019 | 17.78° C | 33% | 1018.3 hPa | 0 mm | - | - | - |
| 1777797420 | 16.67° C | 30% | 1018.5 hPa | 0 mm | - | - | - |
| 1777795622 | 17.22° C | 31% | 1018.5 hPa | 0 mm | - | - | - |
| 1777795020 | 16.67° C | 30% | 1018.5 hPa | 0 mm | - | - | - |
| 1777794421 | 17.22° C | 27% | 1018.5 hPa | 0 mm | - | - | - |
| 1777792622 | 16.67° C | 33% | 1018.4 hPa | 0 mm | - | - | - |
| 1777792020 | 16.11° C | 34% | 1018.4 hPa | 0 mm | - | - | - |
| 1777791421 | 16.11° C | 33% | 1018.4 hPa | 0 mm | - | - | - |
| 1777790221 | 15° C | 32% | 1018.4 hPa | 0 mm | - | - | - |
| 1777789620 | 15° C | 37% | 1018.3 hPa | 0 mm | - | - | - |
| 1777789020 | 14.44° C | 37% | 1018.2 hPa | 0 mm | - | - | - |
| 1777788420 | 13.89° C | 39% | 1018.2 hPa | 0 mm | - | - | - |
| 1777786020 | 12.78° C | 40% | 1018.3 hPa | 0 mm | - | - | - |
| 1777785420 | 12.78° C | 38% | 1018.4 hPa | 0 mm | - | - | - |
| 1777784820 | 12.22° C | 39% | 1018.4 hPa | 0 mm | - | - | - |
| 1777784222 | 11.67° C | 40% | 1018.4 hPa | 0 mm | - | - | - |
| 1777781820 | 11.11° C | 37% | 1018.6 hPa | 0 mm | - | - | - |
| 1777780620 | 11.11° C | 35% | 1018.8 hPa | 0 mm | - | - | - |
| 1777780020 | 11.11° C | 35% | 1018.9 hPa | 0 mm | - | - | - |
| 1777778820 | 10.56° C | 38% | 1018.9 hPa | 0 mm | - | - | - |
| 1777777620 | 11.11° C | 37% | 1019 hPa | 0 mm | - | - | - |
* Rain latest hour (hover to see other rain measurements)
** Current wind speed in m/s (hover to see current wind gust speed)